Time;durP1;ratioP1;P1;durP2;ratioP2;P2;SDS_P1;SDS_P2;PMS_P1;PMS_P2;Temp;Humidity;BMP_temperature;BMP_pressure;BME280_temperature;BME280_humidity;BME280_pressure;Samples;Min_cycle;Max_cycle;Signal;HPM_P1;HPM_P2
2022/07/13 00:02:53;;;;;;;8.88;2.80;;;;;;;;;;8431722;28;20530;-90
2022/07/13 00:06:55;;;;;;;5.63;2.08;;;;;;;;;;8429363;28;20127;-91
2022/07/13 00:11:02;;;;;;;5.75;2.72;;;;;;;;;;8431770;28;20040;-91
2022/07/13 00:15:09;;;;;;;10.18;2.92;;;;;;;;;;8415923;28;20043;-89
2022/07/13 00:19:15;;;;;;;6.60;2.00;;;;;;;;;;8413386;28;20407;-91
2022/07/13 00:23:20;;;;;;;8.52;2.47;;;;;;;;;;8413864;28;20054;-90
2022/07/13 00:27:23;;;;;;;5.93;2.05;;;;;;;;;;8434414;28;20414;-88
2022/07/13 00:31:26;;;;;;;6.45;1.80;;;;;;;;;;8433148;28;20039;-90
2022/07/13 00:35:31;;;;;;;4.72;1.73;;;;;;;;;;8430185;28;20036;-90
2022/07/13 00:39:33;;;;;;;8.68;2.55;;;;;;;;;;8426979;28;20484;-90
2022/07/13 00:43:37;;;;;;;4.32;1.70;;;;;;;;;;8429953;28;20048;-91
2022/07/13 00:47:43;;;;;;;5.78;2.55;;;;;;;;;;8413265;28;20044;-88
2022/07/13 00:51:50;;;;;;;5.85;2.30;;;;;;;;;;8431772;28;20500;-89
2022/07/13 00:55:56;;;;;;;6.15;2.17;;;;;;;;;;8408874;28;20441;-91
2022/07/13 00:59:59;;;;;;;7.07;2.42;;;;;;;;;;8414338;28;20404;-88
2022/07/13 01:04:05;;;;;;;6.13;1.80;;;;;;;;;;8431179;28;20048;-90
2022/07/13 01:08:12;;;;;;;5.28;1.75;;;;;;;;;;8429156;28;20043;-90
2022/07/13 01:12:15;;;;;;;2.53;1.60;;;;;;;;;;8428727;28;20178;-91
2022/07/13 01:16:18;;;;;;;2.88;1.38;;;;;;;;;;8426908;28;20522;-89
2022/07/13 01:20:23;;;;;;;9.90;2.00;;;;;;;;;;8430914;28;20138;-89
2022/07/13 01:24:31;;;;;;;4.72;1.95;;;;;;;;;;8410753;28;20088;-92
2022/07/13 01:28:36;;;;;;;3.28;2.10;;;;;;;;;;8432578;28;20066;-89
2022/07/13 01:32:50;;;;;;;2.88;1.48;;;;;;;;;;8415011;28;20055;-88
2022/07/13 01:36:53;;;;;;;3.53;1.52;;;;;;;;;;8414957;28;20097;-88
2022/07/13 01:40:57;;;;;;;3.28;1.50;;;;;;;;;;8432587;28;20086;-91
2022/07/13 01:45:00;;;;;;;4.78;1.58;;;;;;;;;;8425490;28;20475;-92
2022/07/13 01:49:03;;;;;;;2.95;1.75;;;;;;;;;;8432128;28;20048;-87
2022/07/13 01:53:06;;;;;;;2.63;1.52;;;;;;;;;;8431886;28;20040;-91
2022/07/13 01:57:10;;;;;;;3.03;1.63;;;;;;;;;;8431939;28;20048;-88
2022/07/13 02:01:13;;;;;;;2.80;1.80;;;;;;;;;;8425151;28;20074;-89
2022/07/13 02:05:17;;;;;;;3.55;1.77;;;;;;;;;;8427132;28;20493;-87
2022/07/13 02:09:21;;;;;;;5.22;1.90;;;;;;;;;;8413584;28;20044;-88
2022/07/13 02:13:28;;;;;;;5.30;1.88;;;;;;;;;;8413682;28;20128;-88
2022/07/13 02:17:31;;;;;;;3.47;1.90;;;;;;;;;;8412592;28;20121;-92
2022/07/13 02:21:34;;;;;;;3.53;1.67;;;;;;;;;;8431280;28;20480;-89
2022/07/13 02:25:38;;;;;;;6.00;1.70;;;;;;;;;;8430885;28;20070;-88
2022/07/13 02:29:42;;;;;;;2.95;1.70;;;;;;;;;;8430931;28;20112;-88
2022/07/13 02:33:45;;;;;;;4.30;1.77;;;;;;;;;;8430688;28;20039;-88
2022/07/13 02:37:48;;;;;;;3.63;1.90;;;;;;;;;;8431445;28;20054;-92
2022/07/13 02:41:50;;;;;;;3.13;1.73;;;;;;;;;;8423613;28;20068;-89
2022/07/13 02:45:54;;;;;;;4.25;2.08;;;;;;;;;;8430614;28;20079;-89
2022/07/13 02:49:57;;;;;;;4.95;2.00;;;;;;;;;;8426431;28;20056;-87
2022/07/13 02:54:00;;;;;;;2.50;1.67;;;;;;;;;;8429818;28;20078;-88
2022/07/13 02:58:03;;;;;;;6.20;3.35;;;;;;;;;;8427370;28;20048;-88
2022/07/13 03:02:08;;;;;;;10.90;5.78;;;;;;;;;;8429716;28;20040;-93
2022/07/13 03:06:11;;;;;;;5.88;3.05;;;;;;;;;;8429684;28;20044;-87
2022/07/13 03:10:14;;;;;;;6.03;2.63;;;;;;;;;;8429678;28;20096;-89
2022/07/13 03:14:17;;;;;;;5.78;2.30;;;;;;;;;;8429443;28;20480;-88
2022/07/13 03:18:21;;;;;;;9.85;4.63;;;;;;;;;;8429282;28;20567;-90
2022/07/13 03:22:24;;;;;;;12.45;8.73;;;;;;;;;;8429359;28;20044;-89
2022/07/13 03:26:27;;;;;;;12.77;9.45;;;;;;;;;;8429498;28;20040;-92
2022/07/13 03:30:33;;;;;;;7.78;3.75;;;;;;;;;;8405234;28;20056;-89
2022/07/13 03:34:42;;;;;;;4.80;3.30;;;;;;;;;;8424344;28;20044;-88
2022/07/13 03:38:47;;;;;;;5.20;2.70;;;;;;;;;;8429315;28;20036;-88
2022/07/13 03:42:51;;;;;;;7.88;5.35;;;;;;;;;;8406356;28;20447;-90
2022/07/13 03:46:53;;;;;;;6.43;3.53;;;;;;;;;;8429042;28;20119;-92
2022/07/13 03:50:58;;;;;;;4.93;2.83;;;;;;;;;;8412023;28;20106;-91
2022/07/13 03:55:00;;;;;;;4.25;2.38;;;;;;;;;;8410936;28;20439;-89
2022/07/13 03:59:05;;;;;;;3.30;2.53;;;;;;;;;;8411736;28;20075;-92
2022/07/13 04:03:11;;;;;;;8.82;4.28;;;;;;;;;;8430515;28;20641;-94
2022/07/13 04:07:19;;;;;;;7.03;3.60;;;;;;;;;;8412039;28;20143;-89
2022/07/13 04:11:21;;;;;;;10.80;5.78;;;;;;;;;;8429134;28;20089;-90
2022/07/13 04:15:25;;;;;;;4.35;2.80;;;;;;;;;;8428897;28;20059;-90
2022/07/13 04:19:28;;;;;;;8.73;2.55;;;;;;;;;;8428899;28;20115;-91
2022/07/13 04:23:32;;;;;;;3.28;2.03;;;;;;;;;;8428601;28;20074;-90
2022/07/13 04:27:35;;;;;;;4.45;2.58;;;;;;;;;;8428644;28;20515;-91
2022/07/13 04:31:39;;;;;;;4.85;2.50;;;;;;;;;;8429231;28;20036;-89
2022/07/13 04:35:41;;;;;;;5.65;2.85;;;;;;;;;;8429266;28;20040;-94
2022/07/13 04:39:48;;;;;;;6.60;2.92;;;;;;;;;;8413596;28;20072;-89
2022/07/13 04:43:54;;;;;;;6.05;3.88;;;;;;;;;;8434697;28;20052;-89
2022/07/13 04:48:00;;;;;;;11.57;4.22;;;;;;;;;;8434067;28;20063;-90
2022/07/13 04:52:06;;;;;;;11.90;4.68;;;;;;;;;;8440951;28;20048;-92
2022/07/13 04:56:11;;;;;;;6.35;3.00;;;;;;;;;;8457817;28;20069;-87
2022/07/13 05:00:16;;;;;;;7.47;3.28;;;;;;;;;;8438824;28;20052;-91
2022/07/13 05:04:19;;;;;;;9.38;3.53;;;;;;;;;;8437364;28;20464;-91
2022/07/13 05:08:22;;;;;;;4.68;2.70;;;;;;;;;;8435540;28;20051;-91
2022/07/13 05:12:26;;;;;;;5.78;2.45;;;;;;;;;;8435161;28;20406;-92
2022/07/13 05:16:32;;;;;;;14.55;5.13;;;;;;;;;;8416794;28;20059;-92
2022/07/13 05:20:35;;;;;;;10.57;3.67;;;;;;;;;;8433612;28;20480;-92
2022/07/13 05:24:43;;;;;;;7.75;2.80;;;;;;;;;;8415576;28;20067;-92
2022/07/13 05:28:48;;;;;;;5.15;2.97;;;;;;;;;;8431466;28;20480;-91
2022/07/13 05:32:51;;;;;;;6.78;2.60;;;;;;;;;;8415494;28;20052;-91
2022/07/13 05:36:55;;;;;;;8.43;2.80;;;;;;;;;;8409183;28;20373;-94
2022/07/13 05:40:58;;;;;;;10.02;2.80;;;;;;;;;;8433075;28;20067;-91
2022/07/13 05:45:13;;;;;;;6.28;2.60;;;;;;;;;;8432400;28;20043;-92
2022/07/13 05:49:16;;;;;;;11.00;3.10;;;;;;;;;;8430048;28;20043;-91
2022/07/13 05:53:21;;;;;;;9.98;3.28;;;;;;;;;;8428478;28;20522;-92
2022/07/13 05:57:25;;;;;;;4.53;2.38;;;;;;;;;;8413604;28;20051;-91
2022/07/13 06:01:32;;;;;;;4.78;2.40;;;;;;;;;;8427227;28;20055;-91
2022/07/13 06:05:36;;;;;;;4.97;3.03;;;;;;;;;;8411134;28;20113;-90
2022/07/13 06:09:40;;;;;;;8.77;3.50;;;;;;;;;;8407957;28;20049;-91
2022/07/13 06:13:43;;;;;;;6.22;2.72;;;;;;;;;;8430332;28;20093;-91
2022/07/13 06:17:52;;;;;;;5.63;2.40;;;;;;;;;;8413517;28;20051;-91
2022/07/13 06:21:55;;;;;;;7.65;2.40;;;;;;;;;;8413462;28;20040;-90
2022/07/13 06:26:03;;;;;;;6.03;2.47;;;;;;;;;;8426014;28;20056;-90
2022/07/13 06:30:08;;;;;;;6.65;2.40;;;;;;;;;;8407836;28;20055;-92
2022/07/13 06:34:16;;;;;;;4.78;2.55;;;;;;;;;;8376179;28;20138;-90
2022/07/13 06:38:21;;;;;;;9.02;3.38;;;;;;;;;;8401193;28;20071;-91
2022/07/13 06:42:52;;;;;;;6.00;2.10;;;;;;;;;;8410972;28;20048;-94
2022/07/13 06:47:16;;;;;;;5.60;2.35;;;;;;;;;;8429779;28;20048;-93
2022/07/13 06:51:27;;;;;;;8.57;2.80;;;;;;;;;;8430532;28;20071;-93
2022/07/13 06:55:32;;;;;;;4.72;1.90;;;;;;;;;;8423823;28;20061;-91
2022/07/13 06:59:36;;;;;;;5.47;1.92;;;;;;;;;;8413061;28;20074;-93
2022/07/13 07:03:42;;;;;;;2.97;1.98;;;;;;;;;;8415535;28;20102;-88
2022/07/13 07:07:49;;;;;;;6.32;2.08;;;;;;;;;;8420741;28;20040;-95
2022/07/13 07:12:03;;;;;;;7.20;2.67;;;;;;;;;;8428422;28;20135;-90
2022/07/13 07:16:08;;;;;;;8.45;3.08;;;;;;;;;;8429757;28;20086;-94
2022/07/13 07:20:14;;;;;;;4.97;2.10;;;;;;;;;;8430387;28;20051;-90
2022/07/13 07:24:20;;;;;;;4.63;1.67;;;;;;;;;;8424747;28;20079;-92
2022/07/13 07:28:24;;;;;;;2.25;1.60;;;;;;;;;;8410159;28;20449;-92
2022/07/13 07:32:28;;;;;;;6.50;1.73;;;;;;;;;;8430089;28;20047;-92
2022/07/13 07:36:34;;;;;;;3.70;1.83;;;;;;;;;;8425361;28;20115;-94
2022/07/13 07:40:40;;;;;;;7.93;2.08;;;;;;;;;;8407163;28;20048;-93
2022/07/13 07:44:44;;;;;;;5.97;2.00;;;;;;;;;;8429950;28;20044;-91
2022/07/13 07:48:52;;;;;;;5.07;2.25;;;;;;;;;;8412107;28;20056;-93
2022/07/13 07:52:56;;;;;;;6.20;2.45;;;;;;;;;;8424501;28;20135;-94
2022/07/13 07:57:17;;;;;;;8.15;1.88;;;;;;;;;;8423012;28;20104;-92
2022/07/13 08:01:24;;;;;;;6.95;2.33;;;;;;;;;;8408856;28;20400;-89
2022/07/13 08:05:29;;;;;;;3.80;2.00;;;;;;;;;;8408072;28;20138;-93
2022/07/13 08:09:32;;;;;;;3.05;1.58;;;;;;;;;;8425688;28;20044;-94
2022/07/13 08:13:40;;;;;;;5.53;1.90;;;;;;;;;;8425093;28;20048;-92
2022/07/13 08:17:47;;;;;;;7.65;2.42;;;;;;;;;;8430572;28;20052;-91
2022/07/13 08:21:53;;;;;;;4.18;1.80;;;;;;;;;;8412833;28;20139;-92
2022/07/13 08:26:02;;;;;;;4.32;1.70;;;;;;;;;;8430238;28;20056;-93
2022/07/13 08:30:11;;;;;;;2.65;1.70;;;;;;;;;;8430408;28;20048;-91
2022/07/13 08:38:41;;;;;;;5.20;2.00;;;;;;;;;;8410085;28;20059;-94
2022/07/13 08:42:47;;;;;;;4.75;2.10;;;;;;;;;;8431809;28;20044;-90
2022/07/13 08:46:59;;;;;;;4.85;1.70;;;;;;;;;;8429539;28;20040;-92
2022/07/13 08:51:06;;;;;;;4.82;2.08;;;;;;;;;;8431138;28;20661;-93
2022/07/13 08:55:10;;;;;;;5.30;1.92;;;;;;;;;;8431746;28;20047;-93
2022/07/13 08:59:29;;;;;;;4.80;1.80;;;;;;;;;;8431867;28;20574;-94
2022/07/13 09:03:46;;;;;;;6.53;1.90;;;;;;;;;;8353667;28;20143;-91
2022/07/13 09:08:03;;;;;;;6.57;2.20;;;;;;;;;;8430956;28;20059;-91
2022/07/13 09:12:23;;;;;;;7.82;2.22;;;;;;;;;;8432794;28;20131;-91
2022/07/13 09:16:28;;;;;;;5.33;2.13;;;;;;;;;;8428131;28;20059;-94
2022/07/13 09:20:34;;;;;;;2.53;1.70;;;;;;;;;;8433225;28;20052;-93
2022/07/13 09:24:45;;;;;;;5.35;2.15;;;;;;;;;;8429404;28;20039;-94
2022/07/13 09:28:51;;;;;;;5.05;1.80;;;;;;;;;;8429676;28;20605;-91
2022/07/13 09:32:59;;;;;;;4.85;1.80;;;;;;;;;;8430118;28;20090;-92
2022/07/13 09:37:16;;;;;;;5.78;2.10;;;;;;;;;;8429783;28;20044;-91
2022/07/13 09:41:23;;;;;;;5.63;1.70;;;;;;;;;;8428621;28;20048;-92
2022/07/13 09:49:55;;;;;;;6.90;1.90;;;;;;;;;;8427782;28;20154;-94
2022/07/13 09:54:02;;;;;;;6.60;1.63;;;;;;;;;;8424803;28;20492;-93
2022/07/13 09:58:10;;;;;;;5.95;1.73;;;;;;;;;;8427867;28;20067;-91
2022/07/13 10:02:17;;;;;;;7.25;1.77;;;;;;;;;;8430281;28;20059;-92
2022/07/13 10:06:22;;;;;;;7.63;2.38;;;;;;;;;;8429118;28;20484;-95
2022/07/13 10:10:29;;;;;;;4.05;1.40;;;;;;;;;;8427916;28;20060;-91
2022/07/13 10:14:33;;;;;;;3.67;2.00;;;;;;;;;;8428729;28;20564;-91
2022/07/13 10:18:40;;;;;;;6.65;1.75;;;;;;;;;;8426513;28;20060;-91
2022/07/13 10:22:45;;;;;;;5.18;1.70;;;;;;;;;;8428194;28;20052;-92
2022/07/13 10:26:53;;;;;;;6.13;2.10;;;;;;;;;;8428064;28;20036;-92
2022/07/13 10:31:40;;;;;;;5.60;2.10;;;;;;;;;;8428345;28;20055;-91
2022/07/13 10:35:52;;;;;;;6.27;1.93;;;;;;;;;;8403405;28;20649;-94
2022/07/13 10:40:16;;;;;;;9.10;1.83;;;;;;;;;;8426502;28;20566;-92
2022/07/13 10:44:40;;;;;;;4.85;1.63;;;;;;;;;;8427353;28;20048;-89
2022/07/13 10:48:47;;;;;;;2.75;1.50;;;;;;;;;;8419413;28;20036;-93
2022/07/13 10:53:07;;;;;;;5.28;1.60;;;;;;;;;;8422929;28;20456;-93
2022/07/13 10:57:20;;;;;;;7.47;1.90;;;;;;;;;;8418275;28;20563;-93
2022/07/13 11:01:53;;;;;;;4.88;1.70;;;;;;;;;;8409316;28;20166;-88
2022/07/13 11:06:28;;;;;;;4.65;1.77;;;;;;;;;;8401653;28;20074;-90
2022/07/13 11:11:15;;;;;;;6.95;1.85;;;;;;;;;;8406701;28;20131;-95
2022/07/13 11:15:29;;;;;;;3.60;2.10;;;;;;;;;;8404467;28;20696;-91
2022/07/13 11:20:12;;;;;;;3.55;1.50;;;;;;;;;;8375845;28;20246;-87
2022/07/13 11:28:57;;;;;;;4.70;1.90;;;;;;;;;;8393697;28;20051;-89
2022/07/13 11:33:16;;;;;;;5.45;2.10;;;;;;;;;;8382177;28;20092;-92
2022/07/13 11:37:29;;;;;;;2.92;2.05;;;;;;;;;;8369706;28;20070;-92
2022/07/13 11:41:37;;;;;;;5.63;1.80;;;;;;;;;;8383039;28;20373;-92
2022/07/13 11:46:04;;;;;;;6.03;1.85;;;;;;;;;;8385955;28;20143;-92
2022/07/13 11:50:43;;;;;;;8.30;2.42;;;;;;;;;;8379358;28;20056;-90
2022/07/13 11:55:09;;;;;;;10.07;2.42;;;;;;;;;;8385121;28;20076;-90
2022/07/13 11:59:18;;;;;;;2.88;1.60;;;;;;;;;;8410729;28;20073;-93
2022/07/13 12:03:37;;;;;;;5.70;1.60;;;;;;;;;;8419598;28;20040;-93
2022/07/13 12:12:54;;;;;;;3.78;1.98;;;;;;;;;;8306507;28;20092;-93
2022/07/13 12:33:09;;;;;;;7.00;2.13;;;;;;;;;;8263560;28;20057;-94
2022/07/13 12:37:13;;;;;;;5.55;2.08;;;;;;;;;;8253991;28;20120;-93
2022/07/13 12:41:26;;;;;;;4.85;1.83;;;;;;;;;;8305753;28;20152;-91
2022/07/13 12:45:31;;;;;;;10.88;2.45;;;;;;;;;;8272478;28;20062;-90
2022/07/13 12:49:42;;;;;;;4.22;1.60;;;;;;;;;;8360125;28;20492;-93
2022/07/13 12:53:47;;;;;;;7.03;1.90;;;;;;;;;;8387335;28;20068;-93
2022/07/13 12:57:54;;;;;;;3.08;2.05;;;;;;;;;;8384295;28;20638;-90
2022/07/13 13:12:36;;;;;;;3.70;1.80;;;;;;;;;;8468050;23;20063;-91
2022/07/13 13:16:42;;;;;;;4.85;1.83;;;;;;;;;;8426436;28;20076;-94
2022/07/13 13:20:49;;;;;;;5.10;1.95;;;;;;;;;;8414075;28;20130;-92
2022/07/13 13:24:55;;;;;;;3.53;2.03;;;;;;;;;;8404266;28;20224;-93
2022/07/13 13:33:26;;;;;;;4.30;1.70;;;;;;;;;;8396918;28;20101;-95
2022/07/13 13:37:31;;;;;;;4.22;1.83;;;;;;;;;;8411508;28;20399;-92
2022/07/13 13:41:43;;;;;;;10.05;1.83;;;;;;;;;;8404758;28;20538;-92
2022/07/13 13:45:48;;;;;;;2.63;1.60;;;;;;;;;;8506941;22;20488;-95
2022/07/13 13:49:52;;;;;;;4.90;1.90;;;;;;;;;;8391509;28;20539;-96
2022/07/13 14:20:34;;;;;;;8.07;2.60;;;;;;;;;;8371881;22;20059;-96
2022/07/13 14:40:36;;;;;;;4.45;2.50;;;;;;;;;;8268951;22;20173;-91
2022/07/13 14:44:47;;;;;;;8.27;2.70;;;;;;;;;;8440543;28;20047;-93
2022/07/13 14:54:40;;;;;;;7.90;3.30;;;;;;;;;;8343375;28;20064;-95
2022/07/13 15:03:43;;;;;;;;;;;;;;;;;;8502887;22;20052;-94
2022/07/13 15:07:51;;;;;;;3.67;1.70;;;;;;;;;;8418712;28;19991;-93
2022/07/13 15:12:00;;;;;;;5.22;2.10;;;;;;;;;;8415459;28;20052;-90
2022/07/13 15:16:24;;;;;;;8.10;2.30;;;;;;;;;;8417713;28;20450;-92
2022/07/13 15:20:31;;;;;;;5.15;2.15;;;;;;;;;;8396722;28;20044;-95
2022/07/13 15:24:36;;;;;;;7.18;2.47;;;;;;;;;;8392333;28;20131;-96
2022/07/13 15:28:42;;;;;;;6.85;3.05;;;;;;;;;;8396755;28;20055;-96
2022/07/13 15:32:50;;;;;;;7.78;3.40;;;;;;;;;;8398375;28;20073;-94
2022/07/13 15:36:59;;;;;;;5.47;2.20;;;;;;;;;;8407481;28;20040;-95
2022/07/13 15:45:28;;;;;;;7.60;3.42;;;;;;;;;;8403396;28;20040;-92
2022/07/13 15:49:34;;;;;;;6.43;2.65;;;;;;;;;;8406804;28;20058;-92
2022/07/13 15:53:41;;;;;;;10.20;3.50;;;;;;;;;;8395295;28;20135;-96
2022/07/13 15:57:48;;;;;;;13.45;4.00;;;;;;;;;;8396767;28;20210;-93
2022/07/13 16:06:13;;;;;;;7.78;2.88;;;;;;;;;;8391992;28;20067;-94
2022/07/13 16:10:21;;;;;;;5.95;2.70;;;;;;;;;;8399791;28;20055;-93
2022/07/13 16:14:25;;;;;;;10.80;2.97;;;;;;;;;;8409357;28;20048;-94
2022/07/13 16:18:32;;;;;;;13.98;3.95;;;;;;;;;;8396498;28;20102;-90
2022/07/13 16:22:42;;;;;;;15.07;3.60;;;;;;;;;;8388165;28;20090;-95
2022/07/13 16:26:55;;;;;;;11.32;3.50;;;;;;;;;;8383050;28;20075;-93
2022/07/13 16:31:06;;;;;;;8.00;2.85;;;;;;;;;;8372642;28;20055;-93
2022/07/13 16:35:14;;;;;;;11.10;3.15;;;;;;;;;;8398282;28;20062;-95
2022/07/13 16:39:34;;;;;;;12.27;2.88;;;;;;;;;;8425051;28;20384;-94
2022/07/13 16:43:40;;;;;;;11.35;3.10;;;;;;;;;;8442956;28;20040;-96
2022/07/13 16:47:45;;;;;;;17.02;4.03;;;;;;;;;;8429798;28;20052;-94
2022/07/13 16:51:57;;;;;;;13.50;4.13;;;;;;;;;;8443509;28;20040;-95
2022/07/13 16:56:08;;;;;;;15.40;5.07;;;;;;;;;;8458884;28;20055;-92
2022/07/13 17:00:32;;;;;;;14.52;5.70;;;;;;;;;;8432765;28;20052;-95
2022/07/13 17:04:51;;;;;;;10.52;3.80;;;;;;;;;;8456685;28;20044;-92
2022/07/13 17:09:04;;;;;;;7.35;4.10;;;;;;;;;;8439426;28;20048;-92
2022/07/13 17:18:09;;;;;;;4.53;2.20;;;;;;;;;;8738601;22;20036;-92
2022/07/13 17:22:28;;;;;;;5.75;2.22;;;;;;;;;;8438781;28;20048;-92
2022/07/13 17:26:55;;;;;;;3.45;2.25;;;;;;;;;;8528691;22;20040;-94
2022/07/13 17:52:21;;;;;;;7.25;2.83;;;;;;;;;;8423271;28;20059;-94
2022/07/13 18:07:54;;;;;;;5.13;2.88;;;;;;;;;;8431755;28;20548;-86
2022/07/13 18:12:07;;;;;;;5.30;2.50;;;;;;;;;;8413837;28;20076;-85
2022/07/13 18:16:11;;;;;;;4.88;3.17;;;;;;;;;;8413029;28;20069;-87
2022/07/13 18:20:15;;;;;;;5.55;2.45;;;;;;;;;;8404530;28;20416;-85
2022/07/13 18:24:23;;;;;;;5.78;2.58;;;;;;;;;;8417899;28;20321;-85
2022/07/13 18:28:31;;;;;;;5.85;2.20;;;;;;;;;;8399831;28;20044;-86
2022/07/13 18:32:38;;;;;;;5.65;2.30;;;;;;;;;;8399171;28;20048;-85
2022/07/13 18:37:04;;;;;;;5.85;2.90;;;;;;;;;;8404175;28;20511;-86
2022/07/13 18:41:31;;;;;;;8.40;5.00;;;;;;;;;;8407094;28;20122;-88
2022/07/13 18:45:52;;;;;;;7.72;4.78;;;;;;;;;;8422440;28;20037;-85
2022/07/13 18:50:15;;;;;;;7.32;3.97;;;;;;;;;;8407882;28;20048;-86
2022/07/13 18:54:23;;;;;;;7.28;4.15;;;;;;;;;;8405326;28;20052;-86
2022/07/13 18:58:50;;;;;;;14.00;4.07;;;;;;;;;;8409617;28;20052;-85
2022/07/13 19:03:05;;;;;;;7.85;3.70;;;;;;;;;;8407648;28;20140;-85
2022/07/13 19:07:18;;;;;;;6.32;3.50;;;;;;;;;;8408427;28;20070;-86
2022/07/13 19:11:37;;;;;;;8.77;3.33;;;;;;;;;;8396722;28;20093;-85
2022/07/13 19:16:05;;;;;;;7.82;3.50;;;;;;;;;;8404705;28;20052;-85
2022/07/13 19:20:14;;;;;;;7.95;4.38;;;;;;;;;;8393221;28;20514;-85
2022/07/13 19:27:11;;;;;;;12.23;4.25;;;;;;;;;;8408943;28;20063;-85
2022/07/13 19:29:15;;;;;;;11.48;4.32;;;;;;;;;;8389332;28;20063;-84
2022/07/13 19:33:27;;;;;;;13.05;5.93;;;;;;;;;;8398508;28;20071;-84
2022/07/13 19:37:39;;;;;;;10.95;6.13;;;;;;;;;;8397649;28;20057;-85
2022/07/13 19:41:57;;;;;;;9.20;5.07;;;;;;;;;;8395174;28;20040;-85
2022/07/13 19:46:26;;;;;;;14.57;5.82;;;;;;;;;;8399358;28;20499;-86
2022/07/13 19:50:41;;;;;;;13.15;6.28;;;;;;;;;;8385027;28;20044;-85
2022/07/13 19:54:56;;;;;;;12.75;4.82;;;;;;;;;;8397017;28;20078;-85
2022/07/13 19:59:02;;;;;;;17.42;14.20;;;;;;;;;;8417012;28;20048;-84
2022/07/13 20:03:10;;;;;;;11.63;7.28;;;;;;;;;;8393878;28;20052;-85
2022/07/13 20:07:22;;;;;;;13.27;6.90;;;;;;;;;;8407571;28;20052;-84
2022/07/13 20:11:54;;;;;;;9.48;3.97;;;;;;;;;;8405266;28;20057;-85
2022/07/13 20:16:20;;;;;;;8.73;4.22;;;;;;;;;;8399608;28;20049;-84
2022/07/13 20:20:43;;;;;;;7.72;4.00;;;;;;;;;;8404167;28;20044;-88
2022/07/13 20:24:49;;;;;;;10.73;5.45;;;;;;;;;;8464867;22;20144;-84
2022/07/13 20:28:54;;;;;;;7.03;4.45;;;;;;;;;;8368431;28;20079;-84
2022/07/13 20:32:57;;;;;;;8.40;3.97;;;;;;;;;;8368019;28;20051;-84
2022/07/13 20:37:02;;;;;;;8.35;3.78;;;;;;;;;;8367869;28;20053;-85
2022/07/13 20:41:08;;;;;;;8.98;4.30;;;;;;;;;;8368046;28;20067;-84
2022/07/13 20:45:13;;;;;;;8.60;4.47;;;;;;;;;;8367603;28;20401;-84
2022/07/13 20:49:17;;;;;;;9.88;4.70;;;;;;;;;;8358307;28;20425;-84
2022/07/13 20:53:23;;;;;;;6.43;4.40;;;;;;;;;;8367787;28;20529;-84
2022/07/13 20:57:28;;;;;;;9.88;4.93;;;;;;;;;;8367332;28;20071;-85
2022/07/13 21:01:32;;;;;;;9.77;4.50;;;;;;;;;;8367099;28;20045;-85
2022/07/13 21:05:35;;;;;;;9.38;4.72;;;;;;;;;;8367153;28;20032;-84
2022/07/13 21:09:38;;;;;;;7.18;3.75;;;;;;;;;;8367300;28;20047;-85
2022/07/13 21:13:43;;;;;;;6.78;4.30;;;;;;;;;;8366680;28;20052;-84
2022/07/13 21:17:47;;;;;;;7.43;3.88;;;;;;;;;;8362359;28;20059;-85
2022/07/13 21:21:57;;;;;;;6.28;3.85;;;;;;;;;;8348730;28;20537;-87
2022/07/13 21:26:02;;;;;;;11.00;4.95;;;;;;;;;;8351485;28;20484;-84
2022/07/13 21:30:12;;;;;;;7.00;3.88;;;;;;;;;;8359923;28;20157;-85
2022/07/13 21:34:18;;;;;;;7.80;3.72;;;;;;;;;;8380870;28;20051;-88
2022/07/13 21:38:24;;;;;;;7.32;4.15;;;;;;;;;;8356669;28;20135;-84
2022/07/13 21:42:30;;;;;;;7.45;4.15;;;;;;;;;;8372585;28;20563;-85
2022/07/13 21:46:38;;;;;;;6.72;3.70;;;;;;;;;;8359337;28;20083;-84
2022/07/13 21:50:44;;;;;;;5.68;3.80;;;;;;;;;;8363098;28;20118;-85
2022/07/13 21:54:47;;;;;;;8.45;3.55;;;;;;;;;;8361463;28;20060;-88
2022/07/13 21:58:53;;;;;;;5.85;3.53;;;;;;;;;;8353489;28;20048;-85
2022/07/13 22:03:02;;;;;;;6.93;3.80;;;;;;;;;;8359340;28;20476;-85
2022/07/13 22:07:24;;;;;;;7.63;3.63;;;;;;;;;;8373867;28;20401;-84
2022/07/13 22:12:04;;;;;;;6.18;3.60;;;;;;;;;;8367555;28;20063;-84
2022/07/13 22:16:47;;;;;;;5.07;3.42;;;;;;;;;;8375859;28;20060;-84
2022/07/13 22:21:27;;;;;;;6.38;3.22;;;;;;;;;;8353314;28;20132;-83
2022/07/13 22:26:10;;;;;;;7.10;3.28;;;;;;;;;;8373671;28;20063;-84
2022/07/13 22:30:51;;;;;;;6.30;3.33;;;;;;;;;;8378957;28;20094;-83
2022/07/13 22:35:34;;;;;;;5.95;3.30;;;;;;;;;;8376431;28;20056;-85
2022/07/13 22:40:16;;;;;;;6.20;3.42;;;;;;;;;;8392033;28;20059;-84
2022/07/13 22:44:56;;;;;;;5.78;3.13;;;;;;;;;;8373400;28;20118;-85
2022/07/13 22:49:38;;;;;;;4.30;3.30;;;;;;;;;;8377990;28;20378;-84
2022/07/13 22:53:59;;;;;;;;;;;;;;;;;;8377802;28;20045;-84
2022/07/13 22:58:42;;;;;;;5.57;3.23;;;;;;;;;;8379247;28;19920;-85
2022/07/13 23:03:23;;;;;;;7.90;3.70;;;;;;;;;;8359338;28;20040;-85
2022/07/13 23:08:05;;;;;;;7.68;3.55;;;;;;;;;;8372383;28;20060;-84
2022/07/13 23:12:45;;;;;;;6.82;3.47;;;;;;;;;;8372182;28;20068;-84
2022/07/13 23:17:28;;;;;;;4.90;2.97;;;;;;;;;;8376651;28;20052;-84
2022/07/13 23:22:11;;;;;;;5.35;3.30;;;;;;;;;;8374796;28;20075;-84
2022/07/13 23:26:51;;;;;;;6.22;3.67;;;;;;;;;;8534985;23;20057;-84
2022/07/13 23:31:10;;;;;;;5.32;3.70;;;;;;;;;;8462968;28;20087;-84
2022/07/13 23:35:13;;;;;;;9.32;3.58;;;;;;;;;;8463410;28;20040;-84
2022/07/13 23:39:17;;;;;;;8.13;3.88;;;;;;;;;;8457206;28;20047;-84
2022/07/13 23:43:20;;;;;;;12.98;4.10;;;;;;;;;;8456374;28;20089;-85
2022/07/13 23:47:25;;;;;;;10.82;4.15;;;;;;;;;;8470780;28;20036;-83
2022/07/13 23:51:28;;;;;;;7.72;3.63;;;;;;;;;;8473485;28;20062;-84
2022/07/13 23:55:31;;;;;;;5.38;3.63;;;;;;;;;;8471749;28;20407;-84
2022/07/13 23:59:34;;;;;;;5.38;3.70;;;;;;;;;;8472061;28;20118;-84
